createdAt,value
2022-12-01T00:02:17.086Z,5.70
2022-12-01T00:07:19.987Z,6.50
2022-12-01T00:12:22.839Z,5.80
2022-12-01T00:17:25.641Z,6.00
2022-12-01T00:22:28.441Z,6.30
2022-12-01T00:27:31.117Z,6.30
2022-12-01T00:32:33.907Z,6.50
2022-12-01T00:37:37.096Z,7.10
2022-12-01T00:42:39.852Z,6.60
2022-12-01T00:47:42.653Z,6.00
2022-12-01T00:52:45.350Z,7.40
2022-12-01T00:57:48.054Z,6.00
2022-12-01T01:02:50.775Z,5.80
2022-12-01T01:07:53.671Z,6.80
2022-12-01T01:12:56.386Z,5.20
2022-12-01T01:17:59.153Z,6.30
2022-12-01T01:23:01.955Z,6.70
2022-12-01T01:28:04.659Z,6.70
2022-12-01T01:33:07.432Z,4.60
2022-12-01T01:38:10.775Z,6.00
2022-12-01T01:43:34.972Z,5.90
2022-12-01T01:48:39.701Z,5.90
2022-12-01T01:53:45.594Z,5.70
2022-12-01T01:58:49.091Z,5.70
2022-12-01T02:03:54.470Z,4.30
2022-12-01T02:08:57.184Z,5.00
2022-12-01T02:14:38.680Z,4.60
2022-12-01T02:20:15.009Z,4.90
2022-12-01T02:25:43.804Z,5.20
2022-12-01T02:31:38.975Z,4.50
2022-12-01T02:36:57.674Z,5.00
2022-12-01T02:42:34.682Z,4.50
2022-12-01T02:47:40.559Z,5.00
2022-12-01T02:52:43.769Z,4.30
2022-12-01T02:57:46.483Z,4.50
2022-12-01T03:03:10.594Z,3.80
2022-12-01T03:08:46.256Z,4.90
2022-12-01T03:14:01.837Z,5.00
2022-12-01T03:19:16.701Z,4.60
2022-12-01T03:24:24.414Z,4.70
2022-12-01T03:29:41.467Z,4.50
2022-12-01T03:34:53.577Z,6.00
2022-12-01T03:40:00.479Z,5.80
2022-12-01T03:45:12.032Z,7.60
2022-12-01T03:50:18.701Z,7.10
2022-12-01T03:55:28.235Z,7.10
2022-12-01T04:00:31.605Z,7.80
2022-12-01T04:05:35.467Z,7.40
2022-12-01T04:10:38.193Z,7.70
2022-12-01T04:15:40.920Z,7.90
2022-12-01T04:20:45.854Z,7.50
2022-12-01T04:25:48.527Z,7.80
2022-12-01T04:30:51.358Z,7.90
2022-12-01T04:36:00.480Z,7.60
2022-12-01T04:41:14.141Z,6.30
2022-12-01T04:46:16.849Z,9.40
2022-12-01T04:51:21.407Z,9.70
2022-12-01T04:56:24.291Z,7.80
2022-12-01T05:01:27.583Z,8.60
2022-12-01T05:06:30.621Z,9.40
2022-12-01T05:11:34.288Z,9.80
2022-12-01T05:16:37.097Z,11.60
2022-12-01T05:21:41.477Z,14.80
2022-12-01T05:26:45.097Z,16.60
2022-12-01T05:31:47.994Z,20.30
2022-12-01T05:36:50.849Z,14.70
2022-12-01T05:41:54.004Z,14.60
2022-12-01T05:46:56.763Z,15.80
2022-12-01T05:51:59.458Z,12.70
2022-12-01T05:57:02.210Z,11.00
2022-12-01T06:02:05.065Z,13.00
2022-12-01T06:07:07.775Z,15.00
2022-12-01T06:12:10.459Z,13.40
2022-12-01T06:17:13.213Z,14.10
2022-12-01T06:22:15.952Z,12.60
2022-12-01T06:27:18.817Z,12.10
2022-12-01T06:32:21.927Z,11.90
2022-12-01T06:37:24.645Z,12.70
2022-12-01T06:42:30.624Z,13.00
2022-12-01T06:47:33.428Z,13.60
2022-12-01T06:52:37.191Z,13.90
2022-12-01T06:57:40.537Z,13.40
2022-12-01T07:02:43.662Z,16.70
2022-12-01T07:07:47.141Z,13.00
2022-12-01T07:12:49.923Z,14.70
2022-12-01T07:17:52.712Z,18.40
2022-12-01T07:22:56.984Z,17.30
2022-12-01T07:28:00.107Z,19.20
2022-12-01T07:33:02.915Z,15.70
2022-12-01T07:38:05.743Z,14.00
2022-12-01T07:43:08.474Z,12.80
2022-12-01T07:48:11.297Z,17.60
2022-12-01T07:53:14.223Z,17.10
2022-12-01T07:58:17.473Z,14.20
2022-12-01T08:03:20.780Z,13.80
2022-12-01T08:08:29.537Z,13.30
2022-12-01T08:13:32.539Z,11.90
2022-12-01T08:18:37.955Z,13.60
2022-12-01T08:23:43.800Z,17.90
2022-12-01T08:28:53.251Z,19.50
2022-12-01T08:33:57.170Z,19.00
2022-12-01T08:39:01.112Z,20.30
2022-12-01T08:44:04.123Z,20.20
2022-12-01T08:49:14.603Z,16.40
2022-12-01T08:54:18.032Z,21.40
2022-12-01T08:59:21.013Z,12.50
2022-12-01T09:04:32.514Z,15.70
2022-12-01T09:09:38.238Z,16.30
2022-12-01T09:14:48.038Z,14.10
2022-12-01T09:19:51.237Z,14.80
2022-12-01T09:24:57.543Z,12.80
2022-12-01T09:30:02.569Z,12.10
2022-12-01T09:35:06.791Z,14.00
2022-12-01T09:40:14.783Z,14.30
2022-12-01T09:45:26.345Z,15.20
2022-12-01T09:50:30.979Z,17.10
2022-12-01T09:55:36.357Z,15.20
2022-12-01T10:00:44.081Z,16.40
2022-12-01T10:06:25.127Z,12.00
2022-12-01T10:11:43.789Z,14.00
2022-12-01T10:17:05.233Z,13.90
2022-12-01T10:22:30.337Z,16.40
2022-12-01T10:28:11.246Z,13.70
2022-12-01T10:33:26.931Z,15.90
2022-12-01T10:38:34.537Z,19.20
2022-12-01T10:43:41.162Z,13.90
2022-12-01T10:49:07.526Z,18.20
2022-12-01T10:54:11.899Z,14.10
2022-12-01T10:59:30.571Z,17.80
2022-12-01T11:04:45.605Z,17.00
2022-12-01T11:10:04.271Z,15.10
2022-12-01T11:15:18.121Z,15.20
2022-12-01T11:20:35.830Z,14.20
2022-12-01T11:26:02.326Z,14.70
2022-12-01T11:31:18.558Z,15.40
2022-12-01T11:36:41.004Z,17.90
2022-12-01T11:41:46.130Z,16.50
2022-12-01T11:46:55.840Z,16.10
2022-12-01T11:52:39.491Z,16.70
2022-12-01T11:57:56.103Z,15.50
2022-12-01T12:03:29.445Z,13.40
2022-12-01T12:08:41.149Z,13.60
2022-12-01T12:13:46.666Z,11.50
2022-12-01T12:19:12.194Z,15.20
2022-12-01T12:24:35.076Z,12.50
2022-12-01T12:29:57.471Z,12.90
2022-12-01T12:35:06.221Z,13.80
2022-12-01T12:40:37.945Z,10.10
2022-12-01T12:45:59.688Z,10.70
2022-12-01T12:51:30.851Z,9.80
2022-12-01T12:56:36.202Z,17.90
2022-12-01T13:01:47.996Z,17.60
2022-12-01T13:07:03.390Z,22.00
2022-12-01T13:12:16.102Z,23.00
2022-12-01T13:17:31.236Z,19.30
2022-12-01T13:22:38.613Z,15.70
2022-12-01T13:27:46.155Z,16.70
2022-12-01T13:32:49.781Z,13.50
2022-12-01T13:37:55.674Z,16.10
2022-12-01T13:43:14.087Z,17.10
2022-12-01T13:48:56.141Z,15.40
2022-12-01T13:54:04.860Z,15.00
2022-12-01T13:59:41.188Z,17.10
2022-12-01T14:04:48.525Z,16.80
2022-12-01T14:10:07.617Z,15.80
2022-12-01T14:15:31.107Z,18.30
2022-12-01T14:20:44.610Z,22.80
2022-12-01T14:26:22.613Z,21.40
2022-12-01T14:31:54.975Z,20.40
2022-12-01T14:37:21.383Z,21.10
2022-12-01T14:48:42.182Z,20.60
2022-12-01T14:53:48.828Z,18.60
2022-12-01T14:59:14.626Z,19.10
2022-12-01T15:04:17.729Z,17.20
2022-12-01T15:09:34.157Z,15.70
2022-12-01T15:14:46.938Z,14.60
2022-12-01T15:19:52.480Z,15.00
2022-12-01T15:25:07.025Z,15.50
2022-12-01T15:30:15.171Z,20.60
2022-12-01T15:35:23.114Z,17.60
2022-12-01T15:45:57.564Z,17.50
2022-12-01T15:51:11.736Z,20.20
2022-12-01T15:56:15.055Z,20.50
2022-12-01T16:01:20.252Z,18.20
2022-12-01T16:06:27.722Z,15.50
2022-12-01T16:11:30.865Z,20.90
2022-12-01T16:16:45.864Z,18.90
2022-12-01T16:21:50.613Z,21.70
2022-12-01T16:26:55.010Z,19.60
2022-12-01T16:32:20.312Z,18.00
2022-12-01T16:37:24.271Z,17.50
2022-12-01T16:42:27.480Z,27.50
2022-12-01T16:47:32.759Z,21.20
2022-12-01T16:52:44.363Z,18.90
2022-12-01T16:57:50.361Z,19.10
2022-12-01T17:02:53.491Z,16.90
2022-12-01T17:07:56.483Z,13.10
2022-12-01T17:12:59.384Z,15.20
2022-12-01T17:18:02.527Z,15.40
2022-12-01T17:23:05.617Z,12.30
2022-12-01T17:28:15.658Z,20.80
2022-12-01T17:33:21.419Z,17.10
2022-12-01T17:38:24.286Z,18.10
2022-12-01T17:43:27.075Z,18.30
2022-12-01T17:48:30.117Z,17.00
2022-12-01T17:53:42.048Z,18.30
2022-12-01T17:58:47.356Z,15.50
2022-12-01T18:03:50.467Z,13.60
2022-12-01T18:08:58.751Z,19.80
2022-12-01T18:14:09.434Z,17.30
2022-12-01T18:19:16.913Z,17.30
2022-12-01T18:24:34.115Z,16.10
2022-12-01T18:29:36.903Z,16.30
2022-12-01T18:34:39.890Z,17.40
2022-12-01T18:39:42.672Z,16.20
2022-12-01T18:44:45.391Z,14.00
2022-12-01T18:49:48.378Z,15.90
2022-12-01T18:54:51.325Z,19.80
2022-12-01T18:59:54.729Z,14.30
2022-12-01T19:04:57.550Z,19.20
2022-12-01T19:10:00.343Z,14.00
2022-12-01T19:15:04.292Z,13.30
2022-12-01T19:20:07.925Z,13.30
2022-12-01T19:25:14.508Z,12.80
2022-12-01T19:30:20.025Z,16.30
2022-12-01T19:35:23.994Z,20.00
2022-12-01T19:40:26.814Z,16.00
2022-12-01T19:45:31.927Z,22.50
2022-12-01T19:50:38.248Z,17.40
2022-12-01T19:55:43.209Z,15.20
2022-12-01T20:00:47.099Z,13.30
2022-12-01T20:05:50.703Z,16.00
2022-12-01T20:10:53.512Z,19.20
2022-12-01T20:22:08.469Z,14.20
2022-12-01T20:27:19.444Z,11.20
2022-12-01T20:32:27.743Z,12.00
2022-12-01T20:37:41.484Z,13.00
2022-12-01T20:42:44.719Z,13.20
2022-12-01T20:47:47.532Z,10.90
2022-12-01T20:52:50.288Z,12.80
2022-12-01T20:57:53.137Z,14.10
2022-12-01T21:02:57.078Z,15.80
2022-12-01T21:08:01.216Z,15.60
2022-12-01T21:13:43.525Z,13.90
2022-12-01T21:18:53.723Z,12.20
2022-12-01T21:24:07.671Z,12.00
2022-12-01T21:29:39.874Z,12.40
2022-12-01T21:34:44.413Z,9.10
2022-12-01T21:39:51.068Z,11.50
2022-12-01T21:44:56.893Z,15.50
2022-12-01T21:50:03.598Z,14.80
2022-12-01T21:55:26.280Z,18.20
2022-12-01T22:00:31.706Z,15.60
2022-12-01T22:05:37.684Z,18.70
2022-12-01T22:11:09.621Z,14.40
2022-12-01T22:16:32.769Z,14.80
2022-12-01T22:21:47.868Z,16.00
2022-12-01T22:27:22.450Z,13.70
2022-12-01T22:32:58.313Z,11.60
2022-12-01T22:38:19.091Z,15.80
2022-12-01T22:43:29.889Z,14.30
2022-12-01T22:48:45.127Z,15.10
2022-12-01T22:53:50.122Z,10.00
2022-12-01T22:58:53.724Z,9.90
2022-12-01T23:04:27.742Z,12.30
2022-12-01T23:09:38.115Z,10.60
2022-12-01T23:14:50.174Z,11.80
2022-12-01T23:20:17.830Z,13.60
2022-12-01T23:25:20.918Z,9.70
2022-12-01T23:30:24.748Z,11.70
2022-12-01T23:35:29.998Z,12.00
2022-12-01T23:40:35.293Z,10.70
2022-12-01T23:45:38.145Z,10.50
2022-12-01T23:50:40.925Z,10.50
2022-12-01T23:55:43.720Z,8.70
